createdAt,value
2022-10-02T00:03:48.987Z,3.90
2022-10-02T00:08:57.386Z,3.35
2022-10-02T00:14:04.896Z,3.15
2022-10-02T00:19:06.244Z,3.65
2022-10-02T00:24:13.531Z,2.83
2022-10-02T00:29:14.861Z,4.60
2022-10-02T00:34:46.810Z,3.90
2022-10-02T00:40:02.948Z,3.50
2022-10-02T00:45:22.950Z,4.30
2022-10-02T00:50:47.467Z,4.43
2022-10-02T00:55:51.904Z,4.10
2022-10-02T01:01:11.917Z,3.72
2022-10-02T01:11:14.733Z,3.53
2022-10-02T01:16:16.603Z,4.00
2022-10-02T01:21:37.576Z,3.47
2022-10-02T01:26:39.100Z,4.25
2022-10-02T01:31:40.588Z,4.15
2022-10-02T01:36:42.381Z,4.32
2022-10-02T01:41:44.530Z,4.72
2022-10-02T01:47:04.500Z,4.78
2022-10-02T01:52:19.671Z,4.20
2022-10-02T01:57:37.258Z,5.15
2022-10-02T02:02:41.409Z,5.45
2022-10-02T02:07:51.876Z,3.35
2022-10-02T02:13:06.204Z,4.68
2022-10-02T02:18:25.475Z,4.45
2022-10-02T02:23:32.236Z,5.17
2022-10-02T02:28:36.243Z,4.55
2022-10-02T02:33:42.524Z,4.97
2022-10-02T02:38:51.847Z,5.30
2022-10-02T02:44:04.212Z,5.20
2022-10-02T02:49:11.230Z,4.43
2022-10-02T02:54:19.121Z,4.50
2022-10-02T02:59:23.408Z,4.97
2022-10-02T03:04:24.949Z,4.70
2022-10-02T03:09:28.827Z,5.50
2022-10-02T03:14:52.206Z,4.90
2022-10-02T03:20:22.783Z,5.13
2022-10-02T03:25:32.853Z,5.32
2022-10-02T03:35:37.864Z,4.20
2022-10-02T03:40:39.824Z,4.85
2022-10-02T03:45:51.298Z,4.57
2022-10-02T03:50:53.021Z,4.72
2022-10-02T03:56:04.094Z,3.78
2022-10-02T04:01:39.714Z,4.95
2022-10-02T04:06:51.569Z,3.92
2022-10-02T04:11:59.424Z,4.55
2022-10-02T04:17:08.196Z,4.15
2022-10-02T04:22:24.265Z,4.50
2022-10-02T04:27:34.454Z,3.95
2022-10-02T04:32:36.744Z,3.88
2022-10-02T04:38:03.024Z,4.00
2022-10-02T04:43:26.259Z,5.03
2022-10-02T04:49:06.179Z,3.75
2022-10-02T04:54:29.384Z,4.43
2022-10-02T04:59:49.310Z,3.90
2022-10-02T05:05:05.356Z,3.50
2022-10-02T05:10:25.297Z,4.28
2022-10-02T05:15:51.056Z,2.70
2022-10-02T05:21:17.858Z,4.05
2022-10-02T05:27:13.026Z,3.38
2022-10-02T05:32:34.222Z,4.05
2022-10-02T05:38:08.642Z,3.38
2022-10-02T05:43:18.483Z,4.90
2022-10-02T05:48:38.152Z,4.43
2022-10-02T05:54:04.192Z,3.17
2022-10-02T05:59:39.680Z,3.78
2022-10-02T06:04:46.138Z,4.22
2022-10-02T06:09:54.397Z,3.40
2022-10-02T06:15:20.615Z,3.50
2022-10-02T06:20:34.530Z,3.38
2022-10-02T06:25:47.303Z,2.95
2022-10-02T06:30:57.117Z,3.72
2022-10-02T06:36:25.401Z,2.80
2022-10-02T06:41:55.217Z,3.05
2022-10-02T06:47:15.945Z,2.85
2022-10-02T06:52:46.567Z,3.15
2022-10-02T06:57:51.026Z,1.83
2022-10-02T07:03:16.576Z,2.42
2022-10-02T07:08:29.183Z,2.03
2022-10-02T07:13:48.756Z,2.08
2022-10-02T07:19:16.822Z,1.70
2022-10-02T07:24:46.205Z,1.92
2022-10-02T07:30:01.197Z,2.78
2022-10-02T07:35:22.682Z,2.33
2022-10-02T07:40:52.455Z,1.50
2022-10-02T07:46:09.527Z,2.08
2022-10-02T07:51:28.812Z,2.20
2022-10-02T07:56:36.802Z,1.83
2022-10-02T08:01:44.442Z,1.70
2022-10-02T08:07:03.243Z,1.38
2022-10-02T08:12:17.957Z,2.45
2022-10-02T08:17:39.716Z,1.90
2022-10-02T08:23:03.347Z,1.20
2022-10-02T08:28:43.694Z,1.55
2022-10-02T08:33:50.297Z,1.90
2022-10-02T08:39:33.749Z,2.50
2022-10-02T08:44:56.050Z,1.70
2022-10-02T08:57:04.214Z,1.73
2022-10-02T09:02:12.203Z,1.67
2022-10-02T09:07:38.303Z,1.95
2022-10-02T09:13:04.806Z,1.98
2022-10-02T09:18:24.935Z,1.55
2022-10-02T09:23:35.675Z,2.00
2022-10-02T09:29:08.465Z,1.98
2022-10-02T09:34:23.583Z,1.70
2022-10-02T09:39:59.342Z,1.90
2022-10-02T09:45:20.245Z,2.05
2022-10-02T09:50:32.720Z,1.50
2022-10-02T09:55:53.197Z,2.45
2022-10-02T10:01:45.352Z,1.27
2022-10-02T10:07:03.268Z,1.88
2022-10-02T10:12:33.966Z,1.60
2022-10-02T10:17:58.117Z,1.20
2022-10-02T10:23:24.500Z,1.10
2022-10-02T10:29:09.532Z,1.90
2022-10-02T10:35:01.290Z,2.05
2022-10-02T10:46:24.857Z,1.77
2022-10-02T10:51:39.411Z,2.17
2022-10-02T10:56:45.958Z,1.45
2022-10-02T11:02:11.792Z,1.92
2022-10-02T11:07:30.651Z,1.50
2022-10-02T11:13:15.316Z,1.83
2022-10-02T11:18:44.949Z,2.15
2022-10-02T11:30:02.679Z,1.65
2022-10-02T11:35:29.806Z,1.42
2022-10-02T11:40:55.987Z,1.67
2022-10-02T11:46:28.453Z,2.33
2022-10-02T11:51:48.183Z,2.00
2022-10-02T11:56:55.433Z,1.75
2022-10-02T12:02:25.913Z,1.80
2022-10-02T12:07:39.700Z,2.45
2022-10-02T12:13:25.549Z,2.00
2022-10-02T12:18:52.431Z,2.00
2022-10-02T12:24:37.208Z,2.30
2022-10-02T12:35:40.928Z,2.35
2022-10-02T12:41:19.528Z,2.40
2022-10-02T12:46:54.878Z,2.27
2022-10-02T12:52:14.685Z,2.60
2022-10-02T12:57:28.436Z,3.30
2022-10-02T13:03:02.113Z,2.35
2022-10-02T13:08:42.712Z,2.50
2022-10-02T13:14:14.304Z,2.63
2022-10-02T13:19:40.447Z,2.28
2022-10-02T13:25:10.124Z,2.63
2022-10-02T13:30:19.853Z,2.90
2022-10-02T13:36:59.181Z,2.58
2022-10-02T13:41:43.675Z,2.97
2022-10-02T13:53:27.281Z,2.80
2022-10-02T13:59:12.937Z,3.08
2022-10-02T14:04:29.315Z,2.53
2022-10-02T14:09:49.085Z,2.80
2022-10-02T14:15:27.757Z,3.00
2022-10-02T14:21:42.325Z,2.83
2022-10-02T14:26:17.496Z,2.97
2022-10-02T14:31:34.264Z,2.83
2022-10-02T14:42:25.469Z,2.85
2022-10-02T14:47:36.638Z,3.63
2022-10-02T14:53:06.701Z,2.72
2022-10-02T14:58:29.979Z,2.67
2022-10-02T15:03:43.432Z,3.30
2022-10-02T15:09:10.479Z,3.13
2022-10-02T15:14:26.885Z,3.22
2022-10-02T15:19:51.952Z,3.22
2022-10-02T15:25:17.736Z,2.58
2022-10-02T15:30:22.414Z,3.00
2022-10-02T15:35:32.573Z,2.92
2022-10-02T15:41:05.261Z,3.15
2022-10-02T15:46:36.308Z,3.15
2022-10-02T15:51:46.897Z,3.00
2022-10-02T15:57:09.900Z,3.30
2022-10-02T16:02:33.094Z,2.38
2022-10-02T16:07:53.195Z,3.47
2022-10-02T16:13:08.906Z,2.88
2022-10-02T16:18:24.641Z,3.10
2022-10-02T16:23:56.931Z,2.95
2022-10-02T16:29:16.701Z,3.10
2022-10-02T16:34:38.666Z,3.03
2022-10-02T16:39:59.555Z,3.13
2022-10-02T16:45:51.769Z,3.55
2022-10-02T16:51:17.004Z,2.88
2022-10-02T16:56:32.665Z,3.25
2022-10-02T17:01:59.515Z,4.10
2022-10-02T17:08:03.536Z,3.83
2022-10-02T17:13:25.398Z,3.67
2022-10-02T17:18:53.924Z,3.67
2022-10-02T17:24:14.095Z,5.07
2022-10-02T17:29:24.397Z,4.70
2022-10-02T17:35:02.308Z,4.50
2022-10-02T17:40:39.525Z,4.95
2022-10-02T17:46:23.284Z,4.32
2022-10-02T17:57:27.644Z,5.28
2022-10-02T18:02:53.488Z,4.82
2022-10-02T18:08:19.572Z,5.00
2022-10-02T18:13:38.075Z,4.72
2022-10-02T18:18:50.629Z,4.72
2022-10-02T18:24:27.080Z,4.80
2022-10-02T18:29:47.300Z,4.72
2022-10-02T18:35:02.966Z,4.40
2022-10-02T18:40:23.154Z,4.75
2022-10-02T18:45:58.452Z,5.15
2022-10-02T18:51:09.912Z,4.57
2022-10-02T18:56:12.481Z,4.50
2022-10-02T19:01:37.254Z,5.00
2022-10-02T19:07:02.456Z,5.65
2022-10-02T19:12:21.341Z,5.25
2022-10-02T19:17:27.297Z,5.82
2022-10-02T19:22:35.331Z,5.30
2022-10-02T19:27:38.046Z,5.60
2022-10-02T19:32:42.524Z,4.82
2022-10-02T19:37:48.615Z,5.30
2022-10-02T19:42:57.023Z,5.20
2022-10-02T19:48:05.330Z,3.92
2022-10-02T19:53:15.558Z,4.70
2022-10-02T19:58:25.816Z,4.97
2022-10-02T20:03:27.729Z,3.92
2022-10-02T20:08:40.564Z,3.67
2022-10-02T20:13:46.467Z,3.15
2022-10-02T20:18:48.521Z,4.00
2022-10-02T20:23:53.343Z,3.20
2022-10-02T20:29:11.203Z,3.28
2022-10-02T20:34:28.498Z,3.95
2022-10-02T20:39:36.267Z,3.30
2022-10-02T20:44:38.214Z,4.68
2022-10-02T20:50:14.691Z,4.20
2022-10-02T20:55:26.316Z,4.75
2022-10-02T21:00:38.482Z,3.85
2022-10-02T21:06:10.946Z,4.07
2022-10-02T21:11:31.043Z,4.18
2022-10-02T21:21:53.806Z,3.65
2022-10-02T21:27:26.385Z,3.83
2022-10-02T21:32:43.378Z,4.53
2022-10-02T21:38:06.372Z,4.18
2022-10-02T21:43:58.975Z,3.47
2022-10-02T21:49:19.186Z,3.72
2022-10-02T21:54:46.937Z,3.00
2022-10-02T22:00:20.456Z,4.05
2022-10-02T22:05:49.153Z,3.58
2022-10-02T22:11:14.997Z,3.53
2022-10-02T22:16:38.126Z,3.47
2022-10-02T22:22:07.699Z,3.88
2022-10-02T22:27:43.336Z,5.35
2022-10-02T22:33:10.426Z,4.15
2022-10-02T22:38:38.037Z,3.83
2022-10-02T22:43:53.503Z,3.80
2022-10-02T22:49:21.388Z,3.30
2022-10-02T22:54:39.845Z,2.85
2022-10-02T23:00:03.776Z,3.75
2022-10-02T23:05:14.588Z,3.50
2022-10-02T23:10:23.591Z,4.47
2022-10-02T23:15:52.725Z,4.18
2022-10-02T23:21:03.336Z,4.03
2022-10-02T23:26:18.494Z,4.10
2022-10-02T23:31:31.465Z,4.15
2022-10-02T23:36:48.101Z,5.05
2022-10-02T23:41:54.320Z,4.38
2022-10-02T23:46:55.677Z,4.25
2022-10-02T23:52:12.415Z,3.80
2022-10-02T23:57:35.195Z,3.95
